Time;durP1;ratioP1;P1;durP2;ratioP2;P2;SDS_P1;SDS_P2;PMS_P1;PMS_P2;Temp;Humidity;BMP_temperature;BMP_pressure;BME280_temperature;BME280_humidity;BME280_pressure;Samples;Min_cycle;Max_cycle;Signal;HPM_P1;HPM_P2
2022/12/31 00:01:24;;;;;;;;;24.50;22.25;;;;;7.81;79.52;102290.53;146610;591;46038;-73
2022/12/31 00:04:28;;;;;;;;;27.50;23.50;;;;;7.80;79.73;102287.84;146614;584;46020;-72
2022/12/31 00:07:27;;;;;;;;;29.50;24.25;;;;;7.81;79.54;102287.06;146610;603;46017;-73
2022/12/31 00:10:39;;;;;;;;;27.75;25.00;;;;;7.78;79.47;102300.59;146609;725;46010;-71
2022/12/31 00:13:49;;;;;;;;;25.50;22.75;;;;;7.79;79.12;102305.00;146612;566;46016;-74
2022/12/31 00:17:07;;;;;;;;;28.00;24.25;;;;;7.78;78.79;102313.50;146617;578;46021;-77
2022/12/31 00:20:21;;;;;;;;;28.50;23.75;;;;;7.73;78.12;102314.81;146611;630;46016;-71
2022/12/31 00:23:20;;;;;;;;;41.50;31.25;;;;;7.72;78.56;102327.56;146613;626;46021;-76
2022/12/31 00:26:28;;;;;;;;;34.50;28.50;;;;;7.71;79.10;102329.25;146614;563;46012;-75
2022/12/31 00:29:22;;;;;;;;;30.50;24.50;;;;;7.69;79.01;102328.19;146611;630;46020;-71
2022/12/31 00:32:29;;;;;;;;;;;;;;;;;;;;;
2022/12/31 00:35:35;;;;;;;;;29.75;27.75;;;;;7.64;78.76;102339.81;146616;587;46010;-72
2022/12/31 00:38:36;;;;;;;;;30.25;26.75;;;;;7.60;78.85;102335.13;146609;571;46918;-71
2022/12/31 00:41:31;;;;;;;;;34.25;28.25;;;;;7.62;79.65;102341.34;146609;601;46027;-70
2022/12/31 00:44:28;;;;;;;;;38.00;33.00;;;;;7.63;78.96;102338.91;146606;627;46926;-72
2022/12/31 00:47:47;;;;;;;;;39.25;33.25;;;;;7.63;79.14;102335.37;146613;606;46012;-70
2022/12/31 00:50:42;;;;;;;;;38.50;31.00;;;;;7.65;79.40;102341.59;146612;565;46012;-70
2022/12/31 00:53:43;;;;;;;;;35.25;30.00;;;;;7.71;79.25;102341.25;146614;677;46010;-75
2022/12/31 00:56:36;;;;;;;;;39.50;31.50;;;;;7.75;79.80;102336.47;146612;584;46012;-71
2022/12/31 00:59:52;;;;;;;;;37.75;32.50;;;;;7.76;79.46;102327.06;146615;633;46010;-75
2022/12/31 01:02:50;;;;;;;;;43.25;35.25;;;;;7.89;79.54;102342.88;146612;674;46012;-72
2022/12/31 01:05:49;;;;;;;;;47.50;36.25;;;;;7.93;79.27;102346.62;146616;598;46010;-75
2022/12/31 01:08:44;;;;;;;;;42.00;36.25;;;;;7.95;79.41;102350.25;146611;659;46017;-76
2022/12/31 01:11:40;;;;;;;;;40.50;32.50;;;;;7.96;80.01;102346.91;146607;595;46032;-75
2022/12/31 01:14:40;;;;;;;;;51.00;37.00;;;;;7.96;79.57;102344.31;146608;572;47015;-73
2022/12/31 01:17:35;;;;;;;;;52.00;40.75;;;;;7.99;80.35;102347.16;146614;682;46010;-74
2022/12/31 01:20:42;;;;;;;;;53.00;41.25;;;;;8.04;80.60;102345.91;146612;601;46016;-75
2022/12/31 01:23:45;;;;;;;;;45.75;37.50;;;;;8.06;80.73;102347.81;146615;633;46010;-74
2022/12/31 01:26:37;;;;;;;;;50.50;41.25;;;;;8.13;81.43;102350.94;146613;571;46012;-73
2022/12/31 01:29:32;;;;;;;;;50.75;40.25;;;;;8.17;81.41;102348.75;146615;576;46021;-68
2022/12/31 01:32:36;;;;;;;;;44.00;37.25;;;;;8.22;81.66;102341.41;146609;633;46866;-68
2022/12/31 01:35:43;;;;;;;;;45.75;37.00;;;;;8.26;81.36;102340.91;146614;595;46020;-69
2022/12/31 01:38:55;;;;;;;;;;;;;;;;;;;;;
2022/12/31 01:41:49;;;;;;;;;46.00;35.50;;;;;8.40;81.72;102339.53;146609;588;46010;-68
2022/12/31 01:45:12;;;;;;;;;50.25;39.00;;;;;5.44;81.08;101803.09;146612;594;46016;-70
2022/12/31 01:48:06;;;;;;;;;43.25;36.00;;;;;8.58;81.92;102342.78;146613;598;46020;-70
2022/12/31 01:51:03;;;;;;;;;46.50;37.25;;;;;8.68;81.67;102343.69;146611;583;46016;-69
2022/12/31 01:54:02;;;;;;;;;46.50;36.00;;;;;8.78;81.79;102342.78;146613;601;46021;-69
2022/12/31 01:57:04;;;;;;;;;51.50;41.75;;;;;8.86;81.40;102341.75;146611;577;46016;-69
2022/12/31 02:00:19;;;;;;;;;52.75;42.00;;;;;8.81;81.32;102324.94;146614;566;46019;-71
2022/12/31 02:03:15;;;;;;;;;57.25;45.25;;;;;8.97;81.33;102345.22;146612;573;46012;-70
2022/12/31 02:06:23;;;;;;;;;57.50;45.00;;;;;9.03;81.34;102345.72;146615;630;46010;-71
2022/12/31 02:09:47;;;;;;;;;62.25;46.00;;;;;7.51;79.80;102074.53;146610;570;46016;-71
2022/12/31 02:12:45;;;;;;;;;58.00;44.00;;;;;9.10;80.47;102355.84;146609;643;46020;-71
2022/12/31 02:16:21;;;;;;;;;60.25;47.25;;;;;9.16;79.54;102351.16;146612;564;46014;-74
2022/12/31 02:19:52;;;;;;;;;55.50;45.00;;;;;9.20;79.54;102345.47;146612;587;46010;-69
2022/12/31 02:23:23;;;;;;;;;56.50;44.75;;;;;9.27;79.54;102345.97;146610;579;47016;-70
2022/12/31 02:26:52;;;;;;;;;64.00;48.50;;;;;9.30;79.27;102343.62;146615;590;46020;-71
2022/12/31 02:30:27;;;;;;;;;68.75;52.25;;;;;6.50;78.67;101848.38;146611;567;46017;-70
2022/12/31 02:33:40;;;;;;;;;68.75;51.75;;;;;9.36;79.27;102354.50;146613;632;46020;-70
2022/12/31 02:36:41;;;;;;;;;66.50;51.75;;;;;9.36;79.17;102355.37;146608;599;47016;-71
2022/12/31 02:39:46;;;;;;;;;66.25;50.25;;;;;9.35;78.76;102355.28;146610;572;46020;-71
2022/12/31 02:42:48;;;;;;;;;62.75;48.00;;;;;9.34;79.01;102359.53;146611;571;46034;-70
2022/12/31 02:45:50;;;;;;;;;62.25;48.00;;;;;9.35;79.13;102355.28;146607;583;46021;-71
2022/12/31 02:49:17;;;;;;;;;62.50;48.75;;;;;9.34;78.26;102346.56;146608;623;46014;-71
2022/12/31 02:53:03;;;;;;;;;61.75;47.75;;;;;6.38;77.63;101825.94;146610;588;46021;-70
2022/12/31 02:56:22;;;;;;;;;67.00;50.25;;;;;6.47;77.27;101839.63;146611;598;46016;-70
2022/12/31 03:02:56;;;;;;;;;62.25;49.00;;;;;9.33;78.25;102351.66;146613;625;46012;-72
2022/12/31 03:05:51;;;;;;;;;69.25;52.25;;;;;9.35;78.64;102355.28;146613;583;46010;-71
2022/12/31 03:15:42;;;;;;;;;80.00;68.33;;;;;9.43;78.81;102343.84;146618;623;46035;-70
2022/12/31 03:28:23;;;;;;;;;59.75;46.25;;;;;9.38;78.35;102355.53;146605;606;47914;-72
2022/12/31 03:31:15;;;;;;;;;68.00;51.75;;;;;9.36;78.15;102355.37;146614;622;46010;-72
2022/12/31 03:34:07;;;;;;;;;64.25;48.50;;;;;9.37;78.72;102358.87;146610;691;47034;-75
2022/12/31 03:37:18;;;;;;;;;54.75;42.00;;;;;9.36;78.75;102363.16;146612;564;46020;-70
2022/12/31 03:40:37;;;;;;;;;56.25;44.75;;;;;6.32;77.93;101830.56;146609;587;46016;-70
2022/12/31 03:43:38;;;;;;;;;55.75;42.50;;;;;9.32;78.86;102374.03;146614;634;46010;-71
2022/12/31 03:46:48;;;;;;;;;48.75;39.00;;;;;6.44;78.28;101871.94;146612;606;46034;-69
2022/12/31 03:49:46;;;;;;;;;47.75;37.50;;;;;9.25;78.98;102377.81;146606;569;46020;-67
2022/12/31 03:52:45;;;;;;;;;46.00;36.50;;;;;9.23;78.75;102384.53;146611;605;46012;-71
2022/12/31 03:55:37;;;;;;;;;41.25;34.00;;;;;9.20;79.08;102388.56;146611;578;46010;-70
2022/12/31 03:58:43;;;;;;;;;45.25;36.50;;;;;9.19;79.15;102394.50;146610;612;46012;-70
2022/12/31 04:01:46;;;;;;;;;38.50;33.00;;;;;9.20;79.41;102394.62;146614;566;46010;-69
2022/12/31 04:04:49;;;;;;;;;43.50;35.50;;;;;9.23;78.76;102396.56;146612;580;47012;-67
2022/12/31 04:08:01;;;;;;;;;39.25;33.00;;;;;9.25;78.92;102400.19;146612;650;47010;-72
2022/12/31 04:11:05;;;;;;;;;43.00;35.50;;;;;9.25;79.05;102402.75;146610;565;46915;-71
2022/12/31 04:14:17;;;;;;;;;44.00;32.00;;;;;9.25;78.96;102401.09;146613;623;47020;-71
2022/12/31 04:17:15;;;;;;;;;43.25;35.00;;;;;9.29;79.19;102398.78;146610;600;46014;-71
2022/12/31 04:20:11;;;;;;;;;43.75;32.75;;;;;9.31;79.67;102397.19;146608;601;46013;-73
2022/12/31 04:23:15;;;;;;;;;34.75;31.25;;;;;9.34;80.04;102394.88;146607;577;47025;-72
2022/12/31 04:26:16;;;;;;;;;36.25;30.50;;;;;9.35;79.76;102399.28;146613;586;46020;-72
2022/12/31 04:29:24;;;;;;;;;;;;;;;;;;;;;
2022/12/31 04:32:25;;;;;;;;;36.00;31.00;;;;;9.36;79.61;102396.81;146614;615;46010;-70
2022/12/31 04:35:26;;;;;;;;;41.50;32.75;;;;;9.37;79.26;102400.28;146610;565;46916;-68
2022/12/31 04:38:23;;;;;;;;;60.25;42.75;;;;;9.37;79.58;102408.97;146616;585;46020;-70
2022/12/31 04:41:27;;;;;;;;;51.75;39.00;;;;;9.36;79.41;102408.84;146607;618;46916;-71
2022/12/31 04:44:22;;;;;;;;;54.25;40.75;;;;;9.33;79.11;102409.50;146608;605;47021;-71
2022/12/31 04:47:21;;;;;;;;;55.00;43.25;;;;;9.31;79.10;102400.69;146608;617;46016;-71
2022/12/31 04:50:14;;;;;;;;;53.50;41.75;;;;;9.29;79.24;102409.13;146608;585;46011;-71
2022/12/31 04:53:30;;;;;;;;;46.25;35.75;;;;;9.29;79.10;102414.31;146604;580;46016;-75
2022/12/31 04:56:34;;;;;;;;;;;;;;;;;;;;;
2022/12/31 04:59:30;;;;;;;;;35.75;32.25;;;;;9.28;79.75;102428.91;146610;593;47014;-74
2022/12/31 05:02:22;;;;;;;;;45.00;33.50;;;;;9.28;79.50;102431.50;146609;569;46020;-73
2022/12/31 05:05:23;;;;;;;;;43.00;33.75;;;;;9.27;79.24;102450.41;146610;632;46017;-73
2022/12/31 05:08:17;;;;;;;;;45.00;33.25;;;;;9.24;79.70;102444.97;146606;593;48010;-72
2022/12/31 05:11:25;;;;;;;;;41.50;33.75;;;;;9.24;79.25;102448.44;146611;638;46016;-72
2022/12/31 05:14:38;;;;;;;;;49.25;36.75;;;;;9.23;79.72;102456.09;146613;564;46021;-68
2022/12/31 05:17:30;;;;;;;;;38.75;34.25;;;;;9.20;79.48;102456.75;146611;597;46012;-69
2022/12/31 05:20:27;;;;;;;;;45.50;37.00;;;;;9.16;79.65;102453.78;146607;599;46021;-70
2022/12/31 05:23:26;;;;;;;;;45.00;34.50;;;;;9.13;79.57;102463.87;146612;678;46016;-70
2022/12/31 05:26:29;;;;;;;;;35.00;31.75;;;;;6.14;78.99;101934.59;146610;599;46010;-70
2022/12/31 05:29:32;;;;;;;;;44.50;33.50;;;;;9.02;79.27;102469.03;146603;571;47916;-72
2022/12/31 05:32:33;;;;;;;;;37.25;32.50;;;;;8.95;79.18;102463.22;146610;605;47010;-71
2022/12/31 05:35:25;;;;;;;;;43.00;32.75;;;;;8.91;79.31;102462.06;146611;579;46013;-70
2022/12/31 05:38:24;;;;;;;;;44.75;35.50;;;;;8.90;79.47;102467.06;146611;698;46020;-70
2022/12/31 05:41:16;;;;;;;;;40.75;35.00;;;;;8.87;79.36;102465.13;146611;583;46015;-71
2022/12/31 05:44:14;;;;;;;;;46.75;36.25;;;;;8.86;79.80;102462.44;146613;609;46010;-71
2022/12/31 05:47:16;;;;;;;;;45.25;34.00;;;;;8.86;79.41;102465.91;146606;593;47012;-68
2022/12/31 05:50:11;;;;;;;;;49.75;36.50;;;;;8.87;80.10;102472.00;146608;586;46011;-69
2022/12/31 05:53:03;;;;;;;;;48.00;36.25;;;;;8.89;79.64;102467.88;146611;580;46012;-70
2022/12/31 05:55:58;;;;;;;;;47.50;37.25;;;;;8.89;79.98;102471.34;146614;575;47020;-69
2022/12/31 05:58:50;;;;;;;;;46.25;35.75;;;;;8.91;79.85;102476.63;146610;619;46916;-70
2022/12/31 06:01:48;;;;;;;;;43.75;34.50;;;;;8.92;80.09;102481.06;146614;641;46010;-70
2022/12/31 06:04:47;;;;;;;;;49.50;39.00;;;;;8.94;80.30;102482.06;146611;620;46013;-71
2022/12/31 06:07:50;;;;;;;;;46.50;36.25;;;;;8.95;80.02;102484.81;146612;617;46012;-73
2022/12/31 06:10:51;;;;;;;;;49.00;36.50;;;;;8.95;79.48;102479.62;146612;565;47014;-70
2022/12/31 06:13:49;;;;;;;;;48.00;38.25;;;;;8.92;80.00;102478.47;146612;617;46021;-71
2022/12/31 06:16:43;;;;;;;;;49.50;38.50;;;;;8.89;79.34;102470.44;146610;600;46016;-70
2022/12/31 06:19:44;;;;;;;;;46.25;37.50;;;;;8.82;79.26;102471.59;146608;617;46021;-71
2022/12/31 06:22:46;;;;;;;;;;;;;;;;;;;;;
2022/12/31 06:25:50;;;;;;;;;44.50;35.50;;;;;8.76;79.84;102473.66;146614;571;46020;-70
2022/12/31 06:28:48;;;;;;;;;44.25;34.00;;;;;8.72;79.66;102480.25;146603;585;47915;-70
2022/12/31 06:31:59;;;;;;;;;50.75;35.00;;;;;5.53;79.09;101932.56;146609;582;46020;-70
2022/12/31 06:35:05;;;;;;;;;41.25;33.25;;;;;8.59;80.39;102481.63;146608;576;47014;-71
2022/12/31 06:38:02;;;;;;;;;44.50;35.75;;;;;8.59;80.78;102484.22;146615;639;46010;-71
2022/12/31 06:40:54;;;;;;;;;46.00;36.25;;;;;8.65;80.87;102477.00;146609;585;46015;-70
2022/12/31 06:43:53;;;;;;;;;45.00;35.75;;;;;8.70;81.28;102492.13;146614;676;46021;-71
2022/12/31 06:47:04;;;;;;;;;41.25;33.50;;;;;8.79;81.01;102495.53;146611;671;46014;-71
2022/12/31 06:49:59;;;;;;;;;40.25;34.00;;;;;9.05;82.09;102495.94;146608;579;46020;-73
2022/12/31 06:53:05;;;;;;;;;80.25;57.25;;;;;9.39;82.17;102503.22;146610;636;46012;-72
2022/12/31 06:56:30;;;;;;;;;61.25;38.75;;;;;7.03;80.19;102007.62;146607;649;46020;-73
2022/12/31 06:59:38;;;;;;;;;73.50;57.75;;;;;10.26;79.91;102511.22;146611;571;46012;-73
2022/12/31 07:03:16;;;;;;;;;65.25;46.00;;;;;10.69;78.09;102512.09;146613;579;46020;-70
2022/12/31 07:06:44;;;;;;;;;59.25;46.50;;;;;8.54;75.39;102065.00;146610;592;46016;-69
2022/12/31 07:10:23;;;;;;;;;56.50;43.75;;;;;8.38;73.08;102025.72;146611;564;46020;-69
2022/12/31 07:13:56;;;;;;;;;54.75;42.75;;;;;9.62;72.74;102278.91;146607;592;46016;-71
2022/12/31 07:17:52;;;;;;;;;51.50;41.75;;;;;9.47;72.59;102273.44;146615;553;46010;-70
2022/12/31 07:20:59;;;;;;;;;62.00;46.50;;;;;10.64;73.50;102510.03;146610;583;46916;-70
2022/12/31 07:24:05;;;;;;;;;66.00;48.25;;;;;10.64;74.00;102530.78;146605;661;46020;-69
2022/12/31 07:27:42;;;;;;;;;48.00;37.25;;;;;7.62;74.16;102022.12;146606;625;46017;-69
2022/12/31 07:31:20;;;;;;;;;56.00;41.75;;;;;7.52;75.09;102026.41;146613;602;46020;-69
2022/12/31 07:34:52;;;;;;;;;56.50;42.50;;;;;7.19;76.10;101976.31;146610;599;46017;-69
2022/12/31 07:38:28;;;;;;;;;50.00;39.00;;;;;7.47;76.07;102045.75;146611;626;47010;-69
2022/12/31 07:42:00;;;;;;;;;52.25;40.50;;;;;10.23;77.36;102535.19;146611;617;46017;-69
2022/12/31 07:45:29;;;;;;;;;48.00;39.00;;;;;7.21;77.53;102017.75;146613;628;46012;-73
2022/12/31 07:48:35;;;;;;;;;51.00;39.75;;;;;10.23;78.28;102547.25;146612;641;46018;-71
2022/12/31 07:51:39;;;;;;;;;50.50;39.25;;;;;10.28;78.49;102543.38;146611;611;46020;-71
2022/12/31 07:54:36;;;;;;;;;68.50;51.50;;;;;10.36;78.52;102553.59;146610;631;46016;-71
2022/12/31 07:57:43;;;;;;;;;57.00;45.00;;;;;10.36;78.24;102537.12;146607;580;47010;-70
2022/12/31 08:00:37;;;;;;;;;44.00;33.25;;;;;10.61;80.30;102551.28;146613;575;46016;-67
2022/12/31 08:04:11;;;;;;;;;41.50;34.50;;;;;11.03;81.00;102550.31;146612;625;47031;-66
2022/12/31 08:07:39;;;;;;;;;49.25;38.50;;;;;11.66;80.33;102555.16;146611;577;46016;-67
2022/12/31 08:11:00;;;;;;;;;56.75;43.50;;;;;12.24;77.67;102554.34;146615;628;46018;-69
2022/12/31 08:13:58;;;;;;;;;55.25;42.75;;;;;12.73;76.37;102545.66;146610;599;46034;-68
2022/12/31 08:16:57;;;;;;;;;53.00;41.00;;;;;13.14;73.96;102543.38;146614;574;46020;-68
2022/12/31 08:19:55;;;;;;;;;51.25;40.50;;;;;13.46;72.85;102543.06;146610;588;46017;-68
2022/12/31 08:23:16;;;;;;;;;50.25;36.25;;;;;13.80;71.64;102537.47;146606;719;47010;-68
2022/12/31 08:26:42;;;;;;;;;54.75;41.00;;;;;14.04;69.41;102535.63;146613;572;46018;-68
2022/12/31 08:29:50;;;;;;;;;50.00;40.25;;;;;14.13;67.05;102541.44;146606;612;47010;-68
2022/12/31 08:33:15;;;;;;;;;52.75;42.75;;;;;14.06;67.21;102547.06;146606;626;47015;-69
2022/12/31 08:36:59;;;;;;;;;51.00;40.00;;;;;14.01;68.03;102551.97;146613;733;46020;-71
2022/12/31 08:40:25;;;;;;;;;57.50;43.50;;;;;14.04;67.40;102538.22;146610;575;46016;-70
2022/12/31 08:44:18;;;;;;;;;48.50;38.25;;;;;11.36;67.42;102054.16;146610;593;47012;-68
2022/12/31 08:47:51;;;;;;;;;47.75;37.25;;;;;13.98;67.49;102577.84;146610;598;46015;-69
2022/12/31 08:50:53;;;;;;;;;49.50;38.75;;;;;13.99;67.64;102542.25;146614;620;46020;-69
2022/12/31 08:53:47;;;;;;;;;44.00;34.75;;;;;13.96;66.84;102544.66;146610;592;46014;-69
2022/12/31 08:57:52;;;;;;;;;40.50;34.00;;;;;11.18;67.38;102074.53;146611;566;46021;-71
2022/12/31 09:01:03;;;;;;;;;49.00;36.00;;;;;13.85;69.41;102547.44;146610;576;46016;-70
2022/12/31 09:04:30;;;;;;;;;39.75;32.75;;;;;14.02;68.66;102547.69;146610;681;46010;-70
2022/12/31 09:08:02;;;;;;;;;44.50;32.00;;;;;14.07;67.81;102547.16;146605;587;47012;-69
2022/12/31 09:11:24;;;;;;;;;43.00;34.25;;;;;14.12;69.33;102557.91;146608;564;47010;-69
2022/12/31 09:14:57;;;;;;;;;41.75;34.00;;;;;11.61;67.09;102077.53;146611;563;46016;-70
2022/12/31 09:18:08;;;;;;;;;40.25;32.25;;;;;14.23;67.80;102538.63;146614;569;46020;-68
2022/12/31 09:21:15;;;;;;;;;43.75;34.50;;;;;14.25;67.10;102537.03;146608;648;46915;-69
2022/12/31 09:24:11;;;;;;;;;43.00;32.00;;;;;14.31;67.11;102532.22;146611;565;46021;-68
2022/12/31 09:27:29;;;;;;;;;45.00;34.00;;;;;14.37;66.16;102521.25;146607;563;47024;-69
2022/12/31 09:30:39;;;;;;;;;39.50;33.00;;;;;14.36;66.13;102514.25;146615;642;46020;-68
2022/12/31 09:34:13;;;;;;;;;38.50;31.50;;;;;11.40;66.85;102004.22;146609;587;46014;-69
2022/12/31 09:37:47;;;;;;;;;40.50;33.00;;;;;14.32;66.93;102514.84;146608;624;47010;-69
2022/12/31 09:41:18;;;;;;;;;45.75;33.75;;;;;14.32;66.76;102509.62;146611;598;46016;-69
2022/12/31 09:44:58;;;;;;;;;42.75;34.25;;;;;14.30;66.89;102506.94;146612;576;46020;-68
2022/12/31 09:48:28;;;;;;;;;41.25;33.00;;;;;14.35;66.76;102511.53;146610;569;46017;-69
2022/12/31 09:52:16;;;;;;;;;45.25;34.25;;;;;14.06;66.22;102442.72;146610;599;46020;-70
2022/12/31 09:55:49;;;;;;;;;44.00;35.00;;;;;11.82;67.45;102037.41;146612;620;46013;-69
2022/12/31 09:59:16;;;;;;;;;41.50;34.50;;;;;14.62;66.61;102492.44;146613;630;46010;-71
2022/12/31 10:02:52;;;;;;;;;44.25;35.00;;;;;14.85;67.95;102517.38;146612;569;46016;-69
2022/12/31 10:06:22;;;;;;;;;38.75;34.50;;;;;12.84;67.02;102103.09;146612;644;46020;-70
2022/12/31 10:09:47;;;;;;;;;43.00;34.25;;;;;15.29;66.50;102497.41;146610;602;46017;-72
2022/12/31 10:13:35;;;;;;;;;40.00;32.50;;;;;12.55;65.11;101986.72;146608;569;46020;-70
2022/12/31 10:17:19;;;;;;;;;39.75;34.75;;;;;12.95;65.88;102029.16;146612;570;46016;-70
2022/12/31 10:20:54;;;;;;;;;40.25;31.50;;;;;15.75;65.39;102477.53;146609;583;47010;-70
2022/12/31 10:24:32;;;;;;;;;37.00;31.00;;;;;13.82;63.69;102145.69;146612;644;45018;-71
2022/12/31 10:27:49;;;;;;;;;39.50;31.00;;;;;15.81;62.75;102463.91;146617;630;46030;-70
2022/12/31 10:31:10;;;;;;;;;37.25;32.25;;;;;15.72;62.65;102463.38;146611;587;46017;-69
2022/12/31 10:34:43;;;;;;;;;39.50;32.00;;;;;12.95;63.44;102003.13;146615;595;46020;-70
2022/12/31 10:38:40;;;;;;;;;41.00;32.00;;;;;13.07;63.92;102023.81;146611;569;46013;-69
2022/12/31 10:41:57;;;;;;;;;43.50;33.75;;;;;15.62;64.14;102465.41;146614;563;46012;-70
2022/12/31 10:45:38;;;;;;;;;32.75;28.50;;;;;13.17;64.49;102020.97;146613;676;46017;-70
2022/12/31 10:49:04;;;;;;;;;30.50;28.25;;;;;15.85;63.60;102461.53;146607;595;46012;-69
2022/12/31 10:52:44;;;;;;;;;41.50;34.00;;;;;15.96;63.37;102454.31;146611;609;46015;-70
2022/12/31 10:56:34;;;;;;;;;38.50;31.25;;;;;13.92;63.48;102065.41;146616;612;46020;-69
2022/12/31 11:00:09;;;;;;;;;37.75;32.00;;;;;13.64;61.71;102003.81;146612;576;46017;-68
2022/12/31 11:03:44;;;;;;;;;26.75;26.00;;;;;16.09;61.56;102443.72;146614;589;46020;-67
2022/12/31 11:07:17;;;;;;;;;35.00;30.50;;;;;16.03;62.75;102437.25;146613;577;46012;-69
2022/12/31 11:11:11;;;;;;;;;34.75;29.00;;;;;16.04;62.52;102457.34;146613;670;46012;-70
2022/12/31 11:14:54;;;;;;;;;33.75;29.00;;;;;16.04;62.27;102419.00;146611;570;46017;-70
2022/12/31 11:18:43;;;;;;;;;40.50;31.00;;;;;13.40;61.39;101967.72;146615;570;46010;-69
2022/12/31 11:22:25;;;;;;;;;35.75;29.25;;;;;15.90;63.50;102410.38;146610;610;47016;-69
2022/12/31 11:25:58;;;;;;;;;32.25;29.75;;;;;16.00;61.58;102408.28;146609;570;46020;-68
2022/12/31 11:29:41;;;;;;;;;30.00;28.00;;;;;14.89;63.39;102197.22;146610;587;46016;-69
2022/12/31 11:33:11;;;;;;;;;32.00;29.00;;;;;16.13;59.97;102395.97;146615;578;46010;-71
2022/12/31 11:36:53;;;;;;;;;35.25;29.50;;;;;13.63;60.83;101970.75;146608;598;47016;-69
2022/12/31 11:40:31;;;;;;;;;34.75;30.75;;;;;16.12;61.26;102399.41;146612;615;46029;-71
2022/12/31 11:43:43;;;;;;;;;34.25;29.75;;;;;16.15;61.37;102394.34;146611;774;46012;-71
2022/12/31 11:47:23;;;;;;;;;33.00;30.75;;;;;16.28;60.94;102405.47;146612;577;47012;-70
2022/12/31 11:50:55;;;;;;;;;30.75;27.25;;;;;16.34;60.97;102397.97;146610;616;46016;-71
2022/12/31 11:54:24;;;;;;;;;37.50;31.25;;;;;13.96;60.98;101963.13;146614;607;46020;-70
2022/12/31 11:58:14;;;;;;;;;44.50;33.75;;;;;14.30;60.64;101990.28;146610;573;46016;-70
2022/12/31 12:01:26;;;;;;;;;39.25;33.00;;;;;16.84;59.97;102386.69;146610;601;46010;-71
2022/12/31 12:04:18;;;;;;;;;44.00;34.75;;;;;17.06;58.25;102386.97;146614;564;45016;-71
2022/12/31 12:07:39;;;;;;;;;45.50;36.75;;;;;14.74;59.54;101947.50;146614;706;46021;-71
2022/12/31 12:11:09;;;;;;;;;38.00;31.00;;;;;17.39;59.23;102376.41;146610;564;46012;-71
2022/12/31 12:14:21;;;;;;;;;41.00;32.75;;;;;17.55;57.18;102378.06;146616;581;45028;-70
2022/12/31 12:17:30;;;;;;;;;37.25;31.00;;;;;17.68;56.59;102382.19;146611;688;46016;-71
2022/12/31 12:20:45;;;;;;;;;36.25;31.25;;;;;17.77;58.54;102380.94;146613;573;46010;-71
2022/12/31 12:23:38;;;;;;;;;40.00;33.00;;;;;17.91;56.70;102378.06;146609;590;46017;-70
2022/12/31 12:26:45;;;;;;;;;37.25;31.25;;;;;17.99;56.30;102369.72;146615;630;46020;-70
2022/12/31 12:29:42;;;;;;;;;35.00;32.00;;;;;18.00;53.87;102368.00;146609;592;46017;-70
2022/12/31 12:32:38;;;;;;;;;33.50;29.25;;;;;18.04;54.04;102374.28;146607;613;46010;-71
2022/12/31 12:35:35;;;;;;;;;42.75;36.50;;;;;18.09;55.31;102372.78;146611;618;46014;-70
2022/12/31 12:38:30;;;;;;;;;41.75;33.75;;;;;18.24;53.49;102374.41;146614;603;46010;-71
2022/12/31 12:41:32;;;;;;;;;40.25;34.00;;;;;18.38;54.46;102371.50;146606;665;46916;-70
2022/12/31 12:44:26;;;;;;;;;36.00;31.25;;;;;18.45;53.35;102370.97;146613;601;46021;-71
2022/12/31 12:47:22;;;;;;;;;45.50;35.50;;;;;18.58;54.21;102375.03;146610;573;46016;-70
2022/12/31 12:50:54;;;;;;;;;41.25;33.75;;;;;18.73;54.51;102372.25;146615;611;47010;-71
2022/12/31 12:54:48;;;;;;;;;39.75;30.25;;;;;18.71;52.57;102374.75;146610;569;46012;-71
2022/12/31 12:58:18;;;;;;;;;38.00;31.25;;;;;18.56;55.29;102374.97;146610;585;46020;-71
2022/12/31 13:01:42;;;;;;;;;42.00;33.50;;;;;18.59;54.23;102379.47;146601;576;48012;-71
2022/12/31 13:05:30;;;;;;;;;39.25;32.50;;;;;18.67;57.57;102378.09;146605;588;47020;-70
2022/12/31 13:09:16;;;;;;;;;31.50;28.00;;;;;18.80;53.93;102374.28;146609;603;46025;-71
2022/12/31 13:12:51;;;;;;;;;40.00;33.50;;;;;18.71;54.45;102382.63;146612;578;46010;-71
2022/12/31 13:16:21;;;;;;;;;31.75;30.00;;;;;18.69;53.83;102379.03;146609;567;46017;-72
2022/12/31 13:19:56;;;;;;;;;37.50;30.50;;;;;16.20;56.48;101940.94;146607;587;47010;-71
2022/12/31 13:23:23;;;;;;;;;40.25;31.50;;;;;18.75;53.28;102378.44;146607;615;46013;-70
2022/12/31 13:26:38;;;;;;;;;33.50;31.25;;;;;18.72;52.57;102387.03;146612;582;46010;-71
2022/12/31 13:29:36;;;;;;;;;39.75;34.75;;;;;18.68;52.21;102386.00;146610;593;46016;-71
2022/12/31 13:32:48;;;;;;;;;48.00;39.00;;;;;18.72;53.52;102381.78;146605;600;47010;-70
2022/12/31 13:36:06;;;;;;;;;35.75;30.75;;;;;18.69;52.97;102384.28;146605;576;46012;-71
2022/12/31 13:39:02;;;;;;;;;34.00;29.50;;;;;18.57;51.64;102381.12;146603;604;46012;-71
2022/12/31 13:42:47;;;;;;;;;45.50;37.25;;;;;15.88;56.17;101941.16;146602;675;47012;-71
2022/12/31 13:45:49;;;;;;;;;44.00;34.00;;;;;18.33;53.17;102384.44;146611;650;46020;-71
2022/12/31 13:49:00;;;;;;;;;36.75;31.50;;;;;18.27;55.65;102386.78;146605;586;46016;-71
2022/12/31 13:52:51;;;;;;;;;34.75;28.50;;;;;15.82;56.33;101947.81;146605;624;46020;-72
2022/12/31 13:55:50;;;;;;;;;41.75;35.50;;;;;18.36;54.80;102386.31;146607;630;46016;-71
2022/12/31 13:59:26;;;;;;;;;50.25;41.50;;;;;15.88;59.03;101949.03;146607;564;46011;-71
2022/12/31 14:03:02;;;;;;;;;32.00;27.00;;;;;18.44;53.97;102387.53;146605;635;46016;-71
2022/12/31 14:06:20;;;;;;;;;39.00;33.50;;;;;18.16;56.47;102394.16;146609;589;46029;-71
2022/12/31 14:09:25;;;;;;;;;35.75;31.00;;;;;18.06;56.29;102388.41;146603;593;47012;-71
2022/12/31 14:12:59;;;;;;;;;38.75;32.25;;;;;15.56;58.38;101950.00;146606;573;46020;-70
2022/12/31 14:16:19;;;;;;;;;45.25;36.00;;;;;15.65;58.10;101966.16;146605;608;47014;-70
2022/12/31 14:19:48;;;;;;;;;52.50;41.50;;;;;18.00;57.22;102387.25;146609;629;46020;-70
2022/12/31 14:23:33;;;;;;;;;50.50;42.50;;;;;15.38;58.89;101938.63;146607;648;46016;-70
2022/12/31 14:26:50;;;;;;;;;54.75;42.75;;;;;17.84;57.55;102384.75;146608;571;46010;-71
2022/12/31 14:30:34;;;;;;;;;50.50;40.75;;;;;15.13;58.60;101947.81;146606;650;46918;-71
2022/12/31 14:33:44;;;;;;;;;55.25;44.25;;;;;17.52;57.27;102393.66;146616;611;46020;-71
2022/12/31 14:37:14;;;;;;;;;53.75;43.50;;;;;17.27;58.51;102404.62;146610;615;46017;-70
2022/12/31 14:40:55;;;;;;;;;60.00;45.75;;;;;14.27;58.61;101930.12;146614;710;46032;-71
2022/12/31 14:44:29;;;;;;;;;51.50;41.00;;;;;16.49;59.09;102403.13;146609;614;46017;-71
2022/12/31 14:47:48;;;;;;;;;49.75;39.00;;;;;16.00;59.51;102393.50;146607;581;46031;-70
2022/12/31 14:50:43;;;;;;;;;48.50;40.00;;;;;15.60;59.28;102404.28;146611;569;46012;-68
2022/12/31 14:53:37;;;;;;;;;43.25;35.00;;;;;15.18;60.18;102406.19;146614;570;46029;-71
2022/12/31 14:57:12;;;;;;;;;46.75;37.00;;;;;11.93;62.13;101927.31;146612;581;46016;-71
2022/12/31 15:00:37;;;;;;;;;46.00;38.25;;;;;14.16;63.58;102410.31;146612;579;46021;-71
2022/12/31 15:03:44;;;;;;;;;55.50;43.25;;;;;13.80;64.63;102425.38;146612;696;46016;-71
2022/12/31 15:06:53;;;;;;;;;52.25;42.75;;;;;13.53;65.46;102428.00;146612;566;46021;-71
2022/12/31 15:10:23;;;;;;;;;53.50;42.75;;;;;13.37;66.05;102427.78;146611;595;46917;-71
2022/12/31 15:14:02;;;;;;;;;54.00;42.25;;;;;11.49;66.54;102147.72;146613;588;46021;-71
2022/12/31 15:17:31;;;;;;;;;58.50;46.00;;;;;12.86;67.02;102452.00;146609;604;46016;-70